createdAt,value
2022-11-04T00:02:12.487Z,8.62
2022-11-04T00:04:39.606Z,8.63
2022-11-04T00:07:26.591Z,8.63
2022-11-04T00:09:53.777Z,8.62
2022-11-04T00:12:26.739Z,8.61
2022-11-04T00:14:54.451Z,8.60
2022-11-04T00:17:24.289Z,8.58
2022-11-04T00:20:11.862Z,8.57
2022-11-04T00:22:59.790Z,8.57
2022-11-04T00:25:46.712Z,8.57
2022-11-04T00:28:37.668Z,8.57
2022-11-04T00:31:25.829Z,8.57
2022-11-04T00:33:55.303Z,8.57
2022-11-04T00:36:24.350Z,8.57
2022-11-04T00:38:51.456Z,8.57
2022-11-04T00:41:28.136Z,8.58
2022-11-04T00:44:01.445Z,8.59
2022-11-04T00:46:29.867Z,8.61
2022-11-04T00:48:57.755Z,8.63
2022-11-04T00:51:25.209Z,8.63
2022-11-04T00:53:52.578Z,8.63
2022-11-04T00:56:19.964Z,8.65
2022-11-04T00:58:47.044Z,8.68
2022-11-04T01:01:19.486Z,8.73
2022-11-04T01:03:48.822Z,8.74
2022-11-04T01:06:16.212Z,8.76
2022-11-04T01:08:43.211Z,8.76
2022-11-04T01:11:11.031Z,8.76
2022-11-04T01:13:38.639Z,8.76
2022-11-04T01:16:11.186Z,8.74
2022-11-04T01:18:38.699Z,8.76
2022-11-04T01:21:07.738Z,8.77
2022-11-04T01:23:35.545Z,8.80
2022-11-04T01:26:06.527Z,8.81
2022-11-04T01:28:33.894Z,8.82
2022-11-04T01:31:06.257Z,8.84
2022-11-04T01:33:33.411Z,8.86
2022-11-04T01:36:01.113Z,8.86
2022-11-04T01:38:29.039Z,8.86
2022-11-04T01:40:56.443Z,8.85
2022-11-04T01:43:24.031Z,8.86
2022-11-04T01:45:57.525Z,8.88
2022-11-04T01:48:31.750Z,8.93
2022-11-04T01:51:00.205Z,8.96
2022-11-04T01:53:34.144Z,8.98
2022-11-04T01:56:05.554Z,8.99
2022-11-04T01:58:35.292Z,8.99
2022-11-04T02:01:02.882Z,8.98
2022-11-04T02:03:35.083Z,8.97
2022-11-04T02:06:03.236Z,8.98
2022-11-04T02:08:30.482Z,9.00
2022-11-04T02:11:03.465Z,9.03
2022-11-04T02:13:34.010Z,9.05
2022-11-04T02:16:13.245Z,9.06
2022-11-04T02:18:52.437Z,9.06
2022-11-04T02:21:43.884Z,9.05
2022-11-04T02:24:32.316Z,9.04
2022-11-04T02:27:21.223Z,9.03
2022-11-04T02:30:14.464Z,9.03
2022-11-04T02:33:02.983Z,9.05
2022-11-04T02:35:42.978Z,9.03
2022-11-04T02:38:23.718Z,9.01
2022-11-04T02:41:19.247Z,9.00
2022-11-04T02:43:46.322Z,8.99
2022-11-04T02:46:38.685Z,8.96
2022-11-04T02:49:17.247Z,8.92
2022-11-04T02:51:53.745Z,8.91
2022-11-04T02:54:28.217Z,8.94
2022-11-04T02:56:59.097Z,8.98
2022-11-04T02:59:38.536Z,8.98
2022-11-04T03:02:09.530Z,8.98
2022-11-04T03:04:42.401Z,8.98
2022-11-04T03:07:15.132Z,8.97
2022-11-04T03:09:50.073Z,8.97
2022-11-04T03:12:23.149Z,8.94
2022-11-04T03:14:55.106Z,8.92
2022-11-04T03:17:28.239Z,8.92
2022-11-04T03:20:00.357Z,8.96
2022-11-04T03:22:30.779Z,8.98
2022-11-04T03:24:58.293Z,8.97
2022-11-04T03:27:49.632Z,8.95
2022-11-04T03:30:22.353Z,8.96
2022-11-04T03:33:26.832Z,8.96
2022-11-04T03:35:54.081Z,8.94
2022-11-04T03:38:23.132Z,8.92
2022-11-04T03:40:51.153Z,8.89
2022-11-04T03:43:24.308Z,8.92
2022-11-04T03:45:51.986Z,8.93
2022-11-04T03:48:19.202Z,8.94
2022-11-04T03:50:48.262Z,8.93
2022-11-04T03:56:13.408Z,8.94
2022-11-04T03:58:59.389Z,8.93
2022-11-04T04:01:45.189Z,8.89
2022-11-04T04:04:25.805Z,8.85
2022-11-04T04:06:58.182Z,8.86
2022-11-04T04:10:29.882Z,8.88
2022-11-04T04:13:01.678Z,8.93
2022-11-04T04:15:39.461Z,8.93
2022-11-04T04:18:10.540Z,8.95
2022-11-04T04:20:40.855Z,8.95
2022-11-04T04:23:42.401Z,8.94
2022-11-04T04:26:29.630Z,8.89
2022-11-04T04:28:59.061Z,8.88
2022-11-04T04:31:47.601Z,8.87
2022-11-04T04:34:15.552Z,8.91
2022-11-04T04:36:49.325Z,8.93
2022-11-04T04:39:39.034Z,8.93
2022-11-04T04:42:25.168Z,8.92
2022-11-04T04:45:04.042Z,8.91
2022-11-04T04:47:44.264Z,8.89
2022-11-04T04:50:15.289Z,8.90
2022-11-04T04:52:46.117Z,8.90
2022-11-04T04:55:14.357Z,8.90
2022-11-04T04:57:41.455Z,8.92
2022-11-04T05:00:12.426Z,8.94
2022-11-04T05:02:39.599Z,8.96
2022-11-04T05:05:07.432Z,8.97
2022-11-04T05:07:34.497Z,8.96
2022-11-04T05:10:01.788Z,8.96
2022-11-04T05:12:48.800Z,8.96
2022-11-04T05:15:16.269Z,8.96
2022-11-04T05:17:43.614Z,8.95
2022-11-04T05:20:11.616Z,8.94
2022-11-04T05:22:39.093Z,8.93
2022-11-04T05:25:06.527Z,8.96
2022-11-04T05:27:33.684Z,8.96
2022-11-04T05:30:00.810Z,8.96
2022-11-04T05:32:32.481Z,8.94
2022-11-04T05:34:59.927Z,8.95
2022-11-04T05:37:27.037Z,8.95
2022-11-04T05:39:54.300Z,8.96
2022-11-04T05:42:21.563Z,8.96
2022-11-04T05:44:48.802Z,8.96
2022-11-04T05:47:17.156Z,8.99
2022-11-04T05:49:44.416Z,9.01
2022-11-04T05:52:11.532Z,9.03
2022-11-04T05:54:39.483Z,9.04
2022-11-04T05:57:06.657Z,9.03
2022-11-04T05:59:33.731Z,9.01
2022-11-04T06:02:01.011Z,8.99
2022-11-04T06:04:28.284Z,8.99
2022-11-04T06:06:55.384Z,8.98
2022-11-04T06:09:38.975Z,8.98
2022-11-04T06:12:07.096Z,8.99
2022-11-04T06:14:34.062Z,9.01
2022-11-04T06:17:01.287Z,9.03
2022-11-04T06:19:28.461Z,9.05
2022-11-04T06:21:55.889Z,9.05
2022-11-04T06:24:23.014Z,9.03
2022-11-04T06:26:50.143Z,9.01
2022-11-04T06:29:17.290Z,9.00
2022-11-04T06:31:44.384Z,8.97
2022-11-04T06:34:11.332Z,8.94
2022-11-04T06:36:38.301Z,8.95
2022-11-04T06:39:05.680Z,8.97
2022-11-04T06:41:32.805Z,9.00
2022-11-04T06:43:59.936Z,9.02
2022-11-04T06:46:38.361Z,9.05
2022-11-04T06:49:07.285Z,9.05
2022-11-04T06:51:34.758Z,9.05
2022-11-04T06:54:01.858Z,9.02
2022-11-04T06:56:28.925Z,8.99
2022-11-04T06:58:56.749Z,8.98
2022-11-04T07:01:27.658Z,9.00
2022-11-04T07:03:57.375Z,9.02
2022-11-04T07:06:25.572Z,9.03
2022-11-04T07:08:53.498Z,9.03
2022-11-04T07:11:22.248Z,9.02
2022-11-04T07:13:49.591Z,9.02
2022-11-04T07:16:17.973Z,9.03
2022-11-04T07:18:45.612Z,9.05
2022-11-04T07:21:12.900Z,9.07
2022-11-04T07:23:39.967Z,9.06
2022-11-04T07:26:10.414Z,9.07
2022-11-04T07:28:38.252Z,9.12
2022-11-04T07:31:07.912Z,9.13
2022-11-04T07:33:35.420Z,9.14
2022-11-04T07:36:08.257Z,9.18
2022-11-04T07:38:35.387Z,9.19
2022-11-04T07:41:02.729Z,9.20
2022-11-04T07:43:30.654Z,9.18
2022-11-04T07:46:04.220Z,9.17
2022-11-04T07:48:31.378Z,9.16
2022-11-04T07:50:59.821Z,9.15
2022-11-04T07:53:28.072Z,9.18
2022-11-04T07:55:55.489Z,9.21
2022-11-04T07:58:23.951Z,9.22
2022-11-04T08:00:51.527Z,9.23
2022-11-04T08:03:18.637Z,9.23
2022-11-04T08:05:45.822Z,9.23
2022-11-04T08:08:13.358Z,9.20
2022-11-04T08:10:40.472Z,9.18
2022-11-04T08:13:08.083Z,9.17
2022-11-04T08:15:36.488Z,9.18
2022-11-04T08:18:03.715Z,9.20
2022-11-04T08:20:30.762Z,9.22
2022-11-04T08:22:57.876Z,9.23
2022-11-04T08:25:24.981Z,9.24
2022-11-04T08:27:56.722Z,9.22
2022-11-04T08:30:26.818Z,9.22
2022-11-04T08:32:53.950Z,9.23
2022-11-04T08:35:21.097Z,9.23
2022-11-04T08:37:48.159Z,9.23
2022-11-04T08:40:15.365Z,9.25
2022-11-04T08:42:42.433Z,9.30
2022-11-04T08:45:09.699Z,9.33
2022-11-04T08:47:38.737Z,9.37
2022-11-04T08:50:06.148Z,9.40
2022-11-04T08:52:34.441Z,9.43
2022-11-04T08:55:01.543Z,9.44
2022-11-04T08:57:28.499Z,9.44
2022-11-04T08:59:55.881Z,9.42
2022-11-04T09:02:22.978Z,9.42
2022-11-04T09:04:50.079Z,9.43
2022-11-04T09:07:17.318Z,9.43
2022-11-04T09:09:44.379Z,9.45
2022-11-04T09:12:11.992Z,9.47
2022-11-04T09:14:39.130Z,9.46
2022-11-04T09:17:06.191Z,9.44
2022-11-04T09:19:33.206Z,9.45
2022-11-04T09:22:00.468Z,9.47
2022-11-04T09:24:27.612Z,9.48
2022-11-04T09:26:54.664Z,9.48
2022-11-04T09:29:21.856Z,9.48
2022-11-04T09:31:50.346Z,9.46
2022-11-04T09:34:18.168Z,9.42
2022-11-04T09:36:45.302Z,9.41
2022-11-04T09:39:12.388Z,9.42
2022-11-04T09:41:48.695Z,9.44
2022-11-04T09:45:19.951Z,9.48
2022-11-04T09:47:40.857Z,9.50
2022-11-04T09:50:16.460Z,9.51
2022-11-04T09:52:45.042Z,9.51
2022-11-04T09:55:31.172Z,9.50
2022-11-04T09:57:59.146Z,9.49
2022-11-04T10:00:30.275Z,9.50
2022-11-04T10:03:19.297Z,9.53
2022-11-04T10:05:57.499Z,9.56
2022-11-04T10:08:50.709Z,9.61
2022-11-04T10:11:26.606Z,9.62
2022-11-04T10:14:15.608Z,9.66
2022-11-04T10:17:18.076Z,9.68
2022-11-04T10:20:13.181Z,9.67
2022-11-04T10:22:59.284Z,9.67
2022-11-04T10:25:38.511Z,9.66
2022-11-04T10:28:08.432Z,9.62
2022-11-04T10:30:35.702Z,9.62
2022-11-04T10:33:17.160Z,9.65
2022-11-04T10:35:48.533Z,9.68
2022-11-04T10:38:21.103Z,9.73
2022-11-04T10:40:53.517Z,9.75
2022-11-04T10:43:35.966Z,9.78
2022-11-04T10:46:18.582Z,9.79
2022-11-04T10:48:57.983Z,9.79
2022-11-04T10:51:25.468Z,9.78
2022-11-04T10:53:58.700Z,9.78
2022-11-04T10:56:44.212Z,9.80
2022-11-04T10:59:25.385Z,9.81
2022-11-04T11:01:54.807Z,9.86
2022-11-04T11:04:29.944Z,9.90
2022-11-04T11:06:58.841Z,9.95
2022-11-04T11:09:32.479Z,10.03
2022-11-04T11:12:49.954Z,10.15
2022-11-04T11:15:29.679Z,10.29
2022-11-04T11:18:15.281Z,10.35
2022-11-04T11:20:48.222Z,10.42
2022-11-04T11:23:38.392Z,10.50
2022-11-04T11:26:08.413Z,10.57
2022-11-04T11:28:38.817Z,10.64
2022-11-04T11:31:13.212Z,10.67
2022-11-04T11:33:56.173Z,10.69
2022-11-04T11:36:30.613Z,10.70
2022-11-04T11:39:17.074Z,10.71
2022-11-04T11:41:56.239Z,10.69
2022-11-04T11:44:44.633Z,10.68
2022-11-04T11:47:20.127Z,10.68
2022-11-04T11:50:03.834Z,10.68
2022-11-04T11:52:33.870Z,10.68
2022-11-04T11:55:30.268Z,10.69
2022-11-04T12:01:23.832Z,10.71
2022-11-04T12:09:53.257Z,10.76
2022-11-04T12:12:43.785Z,10.92
2022-11-04T12:15:27.092Z,11.09
2022-11-04T12:18:28.504Z,11.24
2022-11-04T12:21:21.176Z,11.38
2022-11-04T12:24:17.301Z,11.47
2022-11-04T12:26:50.491Z,11.54
2022-11-04T12:29:31.236Z,11.60
2022-11-04T12:32:04.468Z,11.65
2022-11-04T12:34:59.719Z,11.65
2022-11-04T12:37:52.376Z,11.72
2022-11-04T12:40:29.707Z,11.77
2022-11-04T12:43:21.900Z,11.77
2022-11-04T12:46:07.521Z,11.70
2022-11-04T12:48:50.746Z,11.61
2022-11-04T12:51:26.377Z,11.49
2022-11-04T12:54:05.709Z,11.38
2022-11-04T12:56:38.260Z,11.28
2022-11-04T12:59:14.650Z,11.24
2022-11-04T13:01:48.640Z,11.22
2022-11-04T13:04:36.037Z,11.19
2022-11-04T13:07:14.633Z,11.15
2022-11-04T13:09:50.024Z,11.12
2022-11-04T13:12:30.556Z,11.08
2022-11-04T13:15:01.965Z,11.05
2022-11-04T13:17:41.577Z,11.02
2022-11-04T13:20:16.094Z,10.97
2022-11-04T13:22:49.420Z,10.92
2022-11-04T13:25:31.879Z,10.89
2022-11-04T13:28:00.879Z,10.89
2022-11-04T13:30:27.846Z,10.89
2022-11-04T13:33:25.861Z,10.88
2022-11-04T13:35:56.012Z,10.85
2022-11-04T13:38:30.002Z,10.83
2022-11-04T13:41:21.577Z,10.81
2022-11-04T13:43:53.865Z,10.82
2022-11-04T13:46:30.123Z,10.81
2022-11-04T13:49:00.188Z,10.81
2022-11-04T13:52:00.433Z,10.80
2022-11-04T13:54:32.453Z,10.83
2022-11-04T13:57:17.891Z,10.88
2022-11-04T14:00:09.548Z,10.91
2022-11-04T14:02:54.608Z,10.94
2022-11-04T14:05:27.446Z,10.94
2022-11-04T14:08:03.640Z,10.93
2022-11-04T14:10:49.326Z,10.94
2022-11-04T14:13:31.712Z,10.91
2022-11-04T14:16:04.288Z,10.89
2022-11-04T14:18:34.118Z,10.88
2022-11-04T14:21:29.417Z,10.88
2022-11-04T14:24:01.843Z,10.90
2022-11-04T14:26:43.035Z,10.90
2022-11-04T14:29:18.284Z,10.89
2022-11-04T14:31:55.413Z,10.89
2022-11-04T14:34:25.175Z,10.87
2022-11-04T14:36:57.974Z,10.82
2022-11-04T14:39:30.509Z,10.79
2022-11-04T14:42:01.756Z,10.74
2022-11-04T14:44:58.834Z,10.70
2022-11-04T14:47:30.945Z,10.66
2022-11-04T14:49:57.941Z,10.65
2022-11-04T14:52:35.163Z,10.66
2022-11-04T14:55:13.582Z,10.66
2022-11-04T14:57:43.852Z,10.66
2022-11-04T15:00:25.693Z,10.64
2022-11-04T15:03:57.915Z,10.63
2022-11-04T15:06:11.533Z,10.60
2022-11-04T15:08:41.457Z,10.59
2022-11-04T15:11:17.271Z,10.57
2022-11-04T15:13:50.665Z,10.54
2022-11-04T15:16:24.683Z,10.51
2022-11-04T15:18:53.973Z,10.50
2022-11-04T15:21:21.509Z,10.52
2022-11-04T15:23:54.101Z,10.52
2022-11-04T15:26:29.186Z,10.52
2022-11-04T15:29:01.684Z,10.52
2022-11-04T15:31:33.691Z,10.50
2022-11-04T15:34:03.847Z,10.50
2022-11-04T15:36:40.132Z,10.49
2022-11-04T15:39:12.934Z,10.45
2022-11-04T15:42:00.783Z,10.41
2022-11-04T15:44:33.433Z,10.36
2022-11-04T15:47:07.941Z,10.35
2022-11-04T15:49:37.394Z,10.32
2022-11-04T15:52:11.977Z,10.34
2022-11-04T15:54:46.179Z,10.34
2022-11-04T15:57:24.157Z,10.34
2022-11-04T16:00:24.609Z,10.33
2022-11-04T16:02:57.933Z,10.31
2022-11-04T16:05:29.909Z,10.29
2022-11-04T16:08:19.267Z,10.27
2022-11-04T16:10:46.645Z,10.22
2022-11-04T16:13:16.807Z,10.21
2022-11-04T16:15:50.232Z,10.23
2022-11-04T16:18:25.088Z,10.26
2022-11-04T16:20:54.389Z,10.27
2022-11-04T16:23:25.151Z,10.27
2022-11-04T16:26:05.907Z,10.29
2022-11-04T16:28:38.551Z,10.29
2022-11-04T16:31:23.224Z,10.27
2022-11-04T16:33:50.977Z,10.26
2022-11-04T16:36:24.758Z,10.26
2022-11-04T16:38:56.794Z,10.25
2022-11-04T16:41:26.874Z,10.25
2022-11-04T16:43:55.295Z,10.27
2022-11-04T16:46:22.707Z,10.28
2022-11-04T16:48:50.136Z,10.28
2022-11-04T16:51:23.978Z,10.28
2022-11-04T16:53:52.656Z,10.28
2022-11-04T16:56:24.615Z,10.27
2022-11-04T16:58:52.196Z,10.26
2022-11-04T17:01:19.798Z,10.24
2022-11-04T17:03:47.127Z,10.23
2022-11-04T17:06:15.767Z,10.21
2022-11-04T17:08:43.547Z,10.23
2022-11-04T17:11:11.839Z,10.25
2022-11-04T17:13:39.718Z,10.26
2022-11-04T17:16:08.470Z,10.27
2022-11-04T17:18:35.559Z,10.26
2022-11-04T17:21:07.568Z,10.25
2022-11-04T17:23:35.321Z,10.23
2022-11-04T17:26:02.337Z,10.22
2022-11-04T17:28:31.614Z,10.20
2022-11-04T17:30:58.737Z,10.18
2022-11-04T17:33:25.793Z,10.18
2022-11-04T17:35:52.954Z,10.20
2022-11-04T17:38:20.316Z,10.23
2022-11-04T17:41:06.013Z,10.25
2022-11-04T17:43:52.044Z,10.25
2022-11-04T17:46:35.054Z,10.26
2022-11-04T17:49:04.802Z,10.35
2022-11-04T17:51:32.182Z,10.42
2022-11-04T17:53:59.374Z,10.47
2022-11-04T17:56:26.494Z,10.52
2022-11-04T17:58:53.745Z,10.57
2022-11-04T18:01:23.196Z,10.62
2022-11-04T18:03:54.517Z,10.67
2022-11-04T18:06:22.632Z,10.71
2022-11-04T18:08:53.485Z,10.75
2022-11-04T18:11:41.718Z,10.79
2022-11-04T18:14:15.325Z,10.82
2022-11-04T18:16:46.219Z,10.82
2022-11-04T18:29:49.313Z,10.51
2022-11-04T18:32:16.383Z,10.47
2022-11-04T18:34:43.547Z,10.44
2022-11-04T18:37:11.476Z,10.39
2022-11-04T18:39:41.916Z,10.37
2022-11-04T18:42:09.790Z,10.35
2022-11-04T18:44:37.191Z,10.33
2022-11-04T18:47:04.477Z,10.31
2022-11-04T18:49:31.590Z,10.28
2022-11-04T18:52:00.834Z,10.26
2022-11-04T18:54:27.828Z,10.30
2022-11-04T18:56:54.916Z,10.31
2022-11-04T18:59:22.073Z,10.31
2022-11-04T19:01:51.333Z,10.31
2022-11-04T19:04:18.956Z,10.29
2022-11-04T19:06:46.754Z,10.28
2022-11-04T19:09:45.306Z,10.27
2022-11-04T19:12:22.622Z,10.22
2022-11-04T19:14:49.788Z,10.21
2022-11-04T19:17:16.946Z,10.22
2022-11-04T19:19:44.009Z,10.22
2022-11-04T19:22:11.859Z,10.22
2022-11-04T19:24:39.777Z,10.20
2022-11-04T19:27:10.445Z,10.19
2022-11-04T19:29:42.286Z,10.17
2022-11-04T19:32:14.264Z,10.16
2022-11-04T19:34:46.826Z,10.14
2022-11-04T19:37:14.710Z,10.15
2022-11-04T19:39:43.875Z,10.16
2022-11-04T19:42:32.658Z,10.19
2022-11-04T19:45:02.092Z,10.18
2022-11-04T19:47:29.722Z,10.17
2022-11-04T19:49:57.131Z,10.18
2022-11-04T19:52:46.074Z,10.19
2022-11-04T19:55:14.996Z,10.16
2022-11-04T19:57:43.808Z,10.16
2022-11-04T20:00:12.272Z,10.15
2022-11-04T20:02:39.861Z,10.16
2022-11-04T20:05:08.715Z,10.17
2022-11-04T20:07:36.573Z,10.16
2022-11-04T20:10:07.161Z,10.16
2022-11-04T20:12:56.615Z,10.16
2022-11-04T20:15:26.471Z,10.17
2022-11-04T20:17:53.729Z,10.15
2022-11-04T20:20:20.934Z,10.15
2022-11-04T20:22:48.042Z,10.14
2022-11-04T20:25:15.398Z,10.11
2022-11-04T20:27:42.548Z,10.11
2022-11-04T20:30:10.130Z,10.13
2022-11-04T20:32:37.187Z,10.16
2022-11-04T20:35:04.597Z,10.19
2022-11-04T20:37:31.696Z,10.19
2022-11-04T20:39:58.930Z,10.20
2022-11-04T20:42:26.101Z,10.19
2022-11-04T20:44:53.255Z,10.17
2022-11-04T20:47:20.417Z,10.15
2022-11-04T20:49:47.609Z,10.12
2022-11-04T20:52:15.677Z,10.10
2022-11-04T20:54:42.875Z,10.05
2022-11-04T20:57:10.687Z,10.04
2022-11-04T20:59:38.383Z,10.03
2022-11-04T21:02:05.470Z,10.02
2022-11-04T21:04:36.142Z,10.02
2022-11-04T21:07:03.793Z,10.00
2022-11-04T21:09:30.970Z,10.00
2022-11-04T21:11:58.386Z,10.00
2022-11-04T21:14:25.505Z,10.00
2022-11-04T21:16:52.716Z,9.98
2022-11-04T21:19:22.043Z,9.97
2022-11-04T21:21:49.217Z,9.95
2022-11-04T21:24:16.671Z,9.95
2022-11-04T21:26:44.471Z,9.96
2022-11-04T21:29:15.132Z,9.95
2022-11-04T21:31:43.731Z,9.96
2022-11-04T21:34:11.400Z,9.97
2022-11-04T21:36:39.369Z,9.96
2022-11-04T21:39:07.165Z,9.93
2022-11-04T21:41:37.243Z,9.90
2022-11-04T21:44:10.171Z,9.87
2022-11-04T21:46:37.624Z,9.86
2022-11-04T21:49:04.945Z,9.87
2022-11-04T21:51:33.636Z,9.89
2022-11-04T21:54:00.789Z,9.89
2022-11-04T21:56:29.925Z,9.90
2022-11-04T21:58:57.353Z,9.89
2022-11-04T22:01:27.564Z,9.87
2022-11-04T22:03:58.834Z,9.85
2022-11-04T22:06:33.180Z,9.83
2022-11-04T22:09:02.045Z,9.81
2022-11-04T22:11:31.417Z,9.80
2022-11-04T22:14:01.804Z,9.77
2022-11-04T22:16:31.410Z,9.75
2022-11-04T22:19:01.294Z,9.75
2022-11-04T22:21:30.431Z,9.76
2022-11-04T22:23:58.211Z,9.75
2022-11-04T22:26:28.488Z,9.77
2022-11-04T22:28:56.521Z,9.79
2022-11-04T22:31:33.153Z,9.80
2022-11-04T22:34:01.619Z,9.80
2022-11-04T22:36:30.621Z,9.78
2022-11-04T22:38:58.871Z,9.76
2022-11-04T22:41:33.346Z,9.73
2022-11-04T22:44:00.571Z,9.73
2022-11-04T22:46:30.059Z,9.74
2022-11-04T22:48:57.351Z,9.74
2022-11-04T22:51:24.755Z,9.73
2022-11-04T22:53:57.881Z,9.75
2022-11-04T22:56:27.388Z,9.77
2022-11-04T22:58:54.689Z,9.76
2022-11-04T23:01:21.957Z,9.75
2022-11-04T23:03:52.122Z,9.72
2022-11-04T23:06:19.829Z,9.70
2022-11-04T23:08:46.931Z,9.70
2022-11-04T23:11:40.746Z,9.71
2022-11-04T23:14:31.280Z,9.73
2022-11-04T23:17:18.005Z,9.74
2022-11-04T23:19:45.302Z,9.75
2022-11-04T23:22:31.270Z,9.76
2022-11-04T23:25:09.474Z,9.77
2022-11-04T23:28:04.286Z,9.75
2022-11-04T23:30:35.289Z,9.74
2022-11-04T23:33:05.471Z,9.73
2022-11-04T23:35:55.974Z,9.72
2022-11-04T23:38:24.355Z,9.69
2022-11-04T23:41:13.687Z,9.68
2022-11-04T23:43:41.089Z,9.66
2022-11-04T23:46:27.479Z,9.66
2022-11-04T23:49:26.938Z,9.68
2022-11-04T23:52:13.077Z,9.70
2022-11-04T23:54:58.868Z,9.70
2022-11-04T23:57:44.650Z,9.69
